sensor_id;sensor_type;location;lat;lon;timestamp;temperature;humidity
50162;DHT22;36061;48.116;11.612;2022-12-31T00:01:22;11.40;99.90
50162;DHT22;36061;48.116;11.612;2022-12-31T00:03:48;11.40;99.90
50162;DHT22;36061;48.116;11.612;2022-12-31T00:08:53;11.50;99.90
50162;DHT22;36061;48.116;11.612;2022-12-31T00:11:20;11.60;99.90
50162;DHT22;36061;48.116;11.612;2022-12-31T00:13:47;11.80;99.90
50162;DHT22;36061;48.116;11.612;2022-12-31T00:16:20;11.90;99.90
50162;DHT22;36061;48.116;11.612;2022-12-31T00:18:48;11.90;99.90
50162;DHT22;36061;48.116;11.612;2022-12-31T00:21:15;11.80;99.90
50162;DHT22;36061;48.116;11.612;2022-12-31T00:23:41;11.80;99.90
50162;DHT22;36061;48.116;11.612;2022-12-31T00:26:18;11.80;99.90
50162;DHT22;36061;48.116;11.612;2022-12-31T00:28:46;11.80;99.90
50162;DHT22;36061;48.116;11.612;2022-12-31T00:31:17;11.80;99.90
50162;DHT22;36061;48.116;11.612;2022-12-31T00:33:44;11.90;99.90
50162;DHT22;36061;48.116;11.612;2022-12-31T00:38:41;12.10;99.90
50162;DHT22;36061;48.116;11.612;2022-12-31T00:41:07;12.00;99.90
50162;DHT22;36061;48.116;11.612;2022-12-31T00:43:34;12.00;99.90
50162;DHT22;36061;48.116;11.612;2022-12-31T00:46:00;12.10;99.90
50162;DHT22;36061;48.116;11.612;2022-12-31T00:48:26;12.30;99.90
50162;DHT22;36061;48.116;11.612;2022-12-31T00:50:54;12.30;99.90
50162;DHT22;36061;48.116;11.612;2022-12-31T00:53:20;12.40;99.90
50162;DHT22;36061;48.116;11.612;2022-12-31T00:55:47;12.50;99.90
50162;DHT22;36061;48.116;11.612;2022-12-31T00:58:12;12.60;99.90
50162;DHT22;36061;48.116;11.612;2022-12-31T01:00:38;12.60;99.90
50162;DHT22;36061;48.116;11.612;2022-12-31T01:03:05;12.70;99.90
50162;DHT22;36061;48.116;11.612;2022-12-31T01:05:31;12.70;99.90
50162;DHT22;36061;48.116;11.612;2022-12-31T01:07:57;12.70;99.90
50162;DHT22;36061;48.116;11.612;2022-12-31T01:10:23;12.70;99.90
50162;DHT22;36061;48.116;11.612;2022-12-31T01:13:08;12.70;99.90
50162;DHT22;36061;48.116;11.612;2022-12-31T01:15:35;12.80;99.90
50162;DHT22;36061;48.116;11.612;2022-12-31T01:18:03;12.70;99.90
50162;DHT22;36061;48.116;11.612;2022-12-31T01:20:30;12.70;99.90
50162;DHT22;36061;48.116;11.612;2022-12-31T01:22:59;12.60;99.90
50162;DHT22;36061;48.116;11.612;2022-12-31T01:25:25;12.70;99.90
50162;DHT22;36061;48.116;11.612;2022-12-31T01:27:51;12.70;99.90
50162;DHT22;36061;48.116;11.612;2022-12-31T01:30:17;12.70;99.90
50162;DHT22;36061;48.116;11.612;2022-12-31T01:32:42;12.80;99.90
50162;DHT22;36061;48.116;11.612;2022-12-31T01:35:08;12.80;99.90
50162;DHT22;36061;48.116;11.612;2022-12-31T01:37:34;12.70;99.90
50162;DHT22;36061;48.116;11.612;2022-12-31T01:40:00;12.70;99.90
50162;DHT22;36061;48.116;11.612;2022-12-31T01:42:25;12.80;99.90
50162;DHT22;36061;48.116;11.612;2022-12-31T01:44:54;12.70;99.90
50162;DHT22;36061;48.116;11.612;2022-12-31T01:47:39;12.70;99.90
50162;DHT22;36061;48.116;11.612;2022-12-31T01:50:19;12.70;99.90
50162;DHT22;36061;48.116;11.612;2022-12-31T01:52:51;12.80;99.90
50162;DHT22;36061;48.116;11.612;2022-12-31T01:55:33;12.70;99.90
50162;DHT22;36061;48.116;11.612;2022-12-31T01:58:05;12.60;99.90
50162;DHT22;36061;48.116;11.612;2022-12-31T02:00:34;12.60;99.90
50162;DHT22;36061;48.116;11.612;2022-12-31T02:03:00;12.60;99.90
50162;DHT22;36061;48.116;11.612;2022-12-31T02:05:32;12.60;99.90
50162;DHT22;36061;48.116;11.612;2022-12-31T02:08:01;12.60;99.90
50162;DHT22;36061;48.116;11.612;2022-12-31T02:10:27;12.70;99.90
50162;DHT22;36061;48.116;11.612;2022-12-31T02:12:53;12.80;99.90
50162;DHT22;36061;48.116;11.612;2022-12-31T02:15:26;12.90;99.90
50162;DHT22;36061;48.116;11.612;2022-12-31T02:18:03;12.80;99.90
50162;DHT22;36061;48.116;11.612;2022-12-31T02:20:37;12.80;99.90
50162;DHT22;36061;48.116;11.612;2022-12-31T02:31:44;12.80;99.90
50162;DHT22;36061;48.116;11.612;2022-12-31T02:34:31;12.70;99.90
50162;DHT22;36061;48.116;11.612;2022-12-31T02:36:59;12.70;99.90
50162;DHT22;36061;48.116;11.612;2022-12-31T02:39:27;12.70;99.90
50162;DHT22;36061;48.116;11.612;2022-12-31T02:41:53;12.70;99.90
50162;DHT22;36061;48.116;11.612;2022-12-31T02:58:16;12.70;99.90
50162;DHT22;36061;48.116;11.612;2022-12-31T03:00:51;12.80;99.90
50162;DHT22;36061;48.116;11.612;2022-12-31T03:03:37;12.80;99.90
50162;DHT22;36061;48.116;11.612;2022-12-31T03:06:03;12.80;99.90
50162;DHT22;36061;48.116;11.612;2022-12-31T03:08:31;12.80;99.90
50162;DHT22;36061;48.116;11.612;2022-12-31T03:11:16;12.80;99.90
50162;DHT22;36061;48.116;11.612;2022-12-31T03:14:02;12.90;99.90
50162;DHT22;36061;48.116;11.612;2022-12-31T03:16:28;12.90;99.90
50162;DHT22;36061;48.116;11.612;2022-12-31T03:18:53;12.90;99.90
50162;DHT22;36061;48.116;11.612;2022-12-31T03:21:38;12.90;99.90
50162;DHT22;36061;48.116;11.612;2022-12-31T03:24:22;12.90;99.90
50162;DHT22;36061;48.116;11.612;2022-12-31T03:27:07;12.80;99.90
50162;DHT22;36061;48.116;11.612;2022-12-31T03:29:32;12.90;99.90
50162;DHT22;36061;48.116;11.612;2022-12-31T03:31:59;12.90;99.90
50162;DHT22;36061;48.116;11.612;2022-12-31T03:34:25;12.90;99.90
50162;DHT22;36061;48.116;11.612;2022-12-31T03:36:50;12.90;99.90
50162;DHT22;36061;48.116;11.612;2022-12-31T03:39:17;13.10;99.90
50162;DHT22;36061;48.116;11.612;2022-12-31T03:41:43;13.20;99.90
50162;DHT22;36061;48.116;11.612;2022-12-31T03:44:09;13.30;99.90
50162;DHT22;36061;48.116;11.612;2022-12-31T03:46:35;13.30;99.90
50162;DHT22;36061;48.116;11.612;2022-12-31T03:49:01;13.40;99.90
50162;DHT22;36061;48.116;11.612;2022-12-31T03:51:26;13.50;99.90
50162;DHT22;36061;48.116;11.612;2022-12-31T03:53:52;13.50;99.90
50162;DHT22;36061;48.116;11.612;2022-12-31T03:56:18;13.50;99.90
50162;DHT22;36061;48.116;11.612;2022-12-31T03:58:43;13.50;99.90
50162;DHT22;36061;48.116;11.612;2022-12-31T04:01:09;13.40;99.90
50162;DHT22;36061;48.116;11.612;2022-12-31T04:03:35;13.40;99.90
50162;DHT22;36061;48.116;11.612;2022-12-31T04:06:01;13.40;99.90
50162;DHT22;36061;48.116;11.612;2022-12-31T04:08:26;13.30;99.90
50162;DHT22;36061;48.116;11.612;2022-12-31T04:10:52;13.30;99.90
50162;DHT22;36061;48.116;11.612;2022-12-31T04:13:18;13.30;99.90
50162;DHT22;36061;48.116;11.612;2022-12-31T04:15:44;13.30;99.90
50162;DHT22;36061;48.116;11.612;2022-12-31T04:18:09;13.30;99.90
50162;DHT22;36061;48.116;11.612;2022-12-31T04:20:35;13.30;99.90
50162;DHT22;36061;48.116;11.612;2022-12-31T04:23:01;13.30;99.90
50162;DHT22;36061;48.116;11.612;2022-12-31T04:25:26;13.30;99.90
50162;DHT22;36061;48.116;11.612;2022-12-31T04:27:52;13.40;99.90
50162;DHT22;36061;48.116;11.612;2022-12-31T04:30:18;13.40;99.90
50162;DHT22;36061;48.116;11.612;2022-12-31T04:32:44;13.40;99.90
50162;DHT22;36061;48.116;11.612;2022-12-31T04:35:10;13.50;99.90
50162;DHT22;36061;48.116;11.612;2022-12-31T04:37:36;13.40;99.90
50162;DHT22;36061;48.116;11.612;2022-12-31T04:40:02;13.40;99.90
50162;DHT22;36061;48.116;11.612;2022-12-31T04:42:28;13.40;99.90
50162;DHT22;36061;48.116;11.612;2022-12-31T04:44:54;13.50;99.90
50162;DHT22;36061;48.116;11.612;2022-12-31T04:47:19;13.50;99.90
50162;DHT22;36061;48.116;11.612;2022-12-31T04:49:45;13.50;99.90
50162;DHT22;36061;48.116;11.612;2022-12-31T04:52:11;13.50;99.90
50162;DHT22;36061;48.116;11.612;2022-12-31T04:54:37;13.50;99.90
50162;DHT22;36061;48.116;11.612;2022-12-31T04:57:03;13.60;99.90
50162;DHT22;36061;48.116;11.612;2022-12-31T04:59:29;13.80;99.90
50162;DHT22;36061;48.116;11.612;2022-12-31T05:01:54;13.80;99.90
50162;DHT22;36061;48.116;11.612;2022-12-31T05:04:20;13.90;99.90
50162;DHT22;36061;48.116;11.612;2022-12-31T05:06:46;13.90;99.90
50162;DHT22;36061;48.116;11.612;2022-12-31T05:09:12;14.00;99.90
50162;DHT22;36061;48.116;11.612;2022-12-31T05:11:37;13.90;99.90
50162;DHT22;36061;48.116;11.612;2022-12-31T05:14:03;14.00;99.90
50162;DHT22;36061;48.116;11.612;2022-12-31T05:16:29;13.90;99.90
50162;DHT22;36061;48.116;11.612;2022-12-31T05:18:55;14.00;99.90
50162;DHT22;36061;48.116;11.612;2022-12-31T05:21:21;14.00;99.90
50162;DHT22;36061;48.116;11.612;2022-12-31T05:23:47;13.90;99.90
50162;DHT22;36061;48.116;11.612;2022-12-31T05:26:14;13.90;99.90
50162;DHT22;36061;48.116;11.612;2022-12-31T05:28:40;13.90;99.90
50162;DHT22;36061;48.116;11.612;2022-12-31T05:31:06;13.90;99.90
50162;DHT22;36061;48.116;11.612;2022-12-31T05:33:32;13.80;99.90
50162;DHT22;36061;48.116;11.612;2022-12-31T05:35:57;13.80;99.90
50162;DHT22;36061;48.116;11.612;2022-12-31T05:38:24;13.70;99.90
50162;DHT22;36061;48.116;11.612;2022-12-31T05:40:58;13.70;99.90
50162;DHT22;36061;48.116;11.612;2022-12-31T05:43:24;13.70;99.90
50162;DHT22;36061;48.116;11.612;2022-12-31T05:45:50;13.70;99.90
50162;DHT22;36061;48.116;11.612;2022-12-31T05:48:16;13.70;99.90
50162;DHT22;36061;48.116;11.612;2022-12-31T05:50:42;13.70;99.90
50162;DHT22;36061;48.116;11.612;2022-12-31T05:53:07;13.60;99.90
50162;DHT22;36061;48.116;11.612;2022-12-31T05:55:33;13.50;99.90
50162;DHT22;36061;48.116;11.612;2022-12-31T05:57:59;13.50;99.90
50162;DHT22;36061;48.116;11.612;2022-12-31T06:00:25;13.40;99.90
50162;DHT22;36061;48.116;11.612;2022-12-31T06:02:50;13.30;99.90
50162;DHT22;36061;48.116;11.612;2022-12-31T06:05:16;13.20;99.90
50162;DHT22;36061;48.116;11.612;2022-12-31T06:07:42;13.10;99.90
50162;DHT22;36061;48.116;11.612;2022-12-31T06:10:08;13.00;99.90
50162;DHT22;36061;48.116;11.612;2022-12-31T06:12:34;12.90;99.90
50162;DHT22;36061;48.116;11.612;2022-12-31T06:15:00;12.80;99.90
50162;DHT22;36061;48.116;11.612;2022-12-31T06:17:28;12.70;99.90
50162;DHT22;36061;48.116;11.612;2022-12-31T06:19:56;12.60;99.90
50162;DHT22;36061;48.116;11.612;2022-12-31T06:22:22;12.50;99.90
50162;DHT22;36061;48.116;11.612;2022-12-31T06:24:47;12.50;99.90
50162;DHT22;36061;48.116;11.612;2022-12-31T06:27:13;12.50;99.90
50162;DHT22;36061;48.116;11.612;2022-12-31T06:29:39;12.40;99.90
50162;DHT22;36061;48.116;11.612;2022-12-31T06:32:05;12.40;99.90
50162;DHT22;36061;48.116;11.612;2022-12-31T06:34:31;12.30;99.90
50162;DHT22;36061;48.116;11.612;2022-12-31T06:36:57;12.30;99.90
50162;DHT22;36061;48.116;11.612;2022-12-31T06:39:23;12.30;99.90
50162;DHT22;36061;48.116;11.612;2022-12-31T06:41:49;12.30;99.90
50162;DHT22;36061;48.116;11.612;2022-12-31T06:44:15;12.30;99.90
50162;DHT22;36061;48.116;11.612;2022-12-31T06:46:41;12.20;99.90
50162;DHT22;36061;48.116;11.612;2022-12-31T06:49:07;12.20;99.90
50162;DHT22;36061;48.116;11.612;2022-12-31T06:51:32;12.20;99.90
50162;DHT22;36061;48.116;11.612;2022-12-31T06:53:58;12.20;99.90
50162;DHT22;36061;48.116;11.612;2022-12-31T06:56:25;12.10;99.90
50162;DHT22;36061;48.116;11.612;2022-12-31T06:58:54;12.10;99.90
50162;DHT22;36061;48.116;11.612;2022-12-31T07:01:56;12.10;99.90
50162;DHT22;36061;48.116;11.612;2022-12-31T07:20:29;11.80;99.90
50162;DHT22;36061;48.116;11.612;2022-12-31T07:22:56;11.80;99.90
50162;DHT22;36061;48.116;11.612;2022-12-31T07:25:23;11.80;99.90
50162;DHT22;36061;48.116;11.612;2022-12-31T07:39:44;11.80;99.90
50162;DHT22;36061;48.116;11.612;2022-12-31T07:45:25;11.80;99.90
50162;DHT22;36061;48.116;11.612;2022-12-31T07:47:53;11.80;99.90
50162;DHT22;36061;48.116;11.612;2022-12-31T07:50:19;11.80;99.90
50162;DHT22;36061;48.116;11.612;2022-12-31T07:52:45;11.80;99.90
50162;DHT22;36061;48.116;11.612;2022-12-31T07:55:11;11.80;99.90
50162;DHT22;36061;48.116;11.612;2022-12-31T07:57:47;11.80;99.90
50162;DHT22;36061;48.116;11.612;2022-12-31T08:00:14;11.80;99.90
50162;DHT22;36061;48.116;11.612;2022-12-31T08:13:26;11.90;99.90
50162;DHT22;36061;48.116;11.612;2022-12-31T08:15:52;11.90;99.90
50162;DHT22;36061;48.116;11.612;2022-12-31T08:18:18;11.90;99.90
50162;DHT22;36061;48.116;11.612;2022-12-31T08:21:02;11.90;99.90
50162;DHT22;36061;48.116;11.612;2022-12-31T08:27:01;11.90;99.90
50162;DHT22;36061;48.116;11.612;2022-12-31T08:29:53;12.00;99.90
50162;DHT22;36061;48.116;11.612;2022-12-31T08:32:27;12.00;99.90
50162;DHT22;36061;48.116;11.612;2022-12-31T08:37:35;12.00;99.90
50162;DHT22;36061;48.116;11.612;2022-12-31T08:44:15;12.00;99.90
50162;DHT22;36061;48.116;11.612;2022-12-31T08:46:30;12.10;99.90
50162;DHT22;36061;48.116;11.612;2022-12-31T08:48:59;12.10;99.90
50162;DHT22;36061;48.116;11.612;2022-12-31T08:51:25;12.10;99.90
50162;DHT22;36061;48.116;11.612;2022-12-31T08:53:52;12.10;99.90
50162;DHT22;36061;48.116;11.612;2022-12-31T08:56:55;12.10;99.90
50162;DHT22;36061;48.116;11.612;2022-12-31T09:07:39;12.40;99.90
50162;DHT22;36061;48.116;11.612;2022-12-31T09:10:17;12.50;99.90
50162;DHT22;36061;48.116;11.612;2022-12-31T09:15:43;12.80;99.90
50162;DHT22;36061;48.116;11.612;2022-12-31T09:18:11;13.00;99.90
50162;DHT22;36061;48.116;11.612;2022-12-31T09:20:38;13.10;99.90
50162;DHT22;36061;48.116;11.612;2022-12-31T09:23:04;13.20;99.90
50162;DHT22;36061;48.116;11.612;2022-12-31T09:25:30;13.30;99.90
50162;DHT22;36061;48.116;11.612;2022-12-31T09:28:13;13.40;99.90
50162;DHT22;36061;48.116;11.612;2022-12-31T09:31:03;13.50;99.90
50162;DHT22;36061;48.116;11.612;2022-12-31T09:33:35;13.50;99.90
50162;DHT22;36061;48.116;11.612;2022-12-31T09:36:06;13.60;99.90
50162;DHT22;36061;48.116;11.612;2022-12-31T10:03:42;14.90;99.90
50162;DHT22;36061;48.116;11.612;2022-12-31T10:08:55;15.00;99.90
50162;DHT22;36061;48.116;11.612;2022-12-31T10:11:56;15.00;99.90
50162;DHT22;36061;48.116;11.612;2022-12-31T10:14:35;15.10;99.90
50162;DHT22;36061;48.116;11.612;2022-12-31T10:33:54;16.00;99.90
50162;DHT22;36061;48.116;11.612;2022-12-31T10:36:41;16.20;99.90
50162;DHT22;36061;48.116;11.612;2022-12-31T10:54:27;16.40;99.90
50162;DHT22;36061;48.116;11.612;2022-12-31T11:05:10;16.20;99.90
50162;DHT22;36061;48.116;11.612;2022-12-31T11:22:24;16.00;99.90
50162;DHT22;36061;48.116;11.612;2022-12-31T11:30:24;15.90;99.90
50162;DHT22;36061;48.116;11.612;2022-12-31T11:38:23;16.10;99.90
50162;DHT22;36061;48.116;11.612;2022-12-31T11:41:27;16.20;99.90
50162;DHT22;36061;48.116;11.612;2022-12-31T11:47:10;16.20;99.90
50162;DHT22;36061;48.116;11.612;2022-12-31T11:55:11;16.50;99.90
50162;DHT22;36061;48.116;11.612;2022-12-31T11:57:47;16.60;99.90
50162;DHT22;36061;48.116;11.612;2022-12-31T12:00:23;16.70;99.90
50162;DHT22;36061;48.116;11.612;2022-12-31T12:02:52;16.70;99.90
50162;DHT22;36061;48.116;11.612;2022-12-31T12:05:24;16.80;99.90
50162;DHT22;36061;48.116;11.612;2022-12-31T12:07:51;16.90;99.90
50162;DHT22;36061;48.116;11.612;2022-12-31T12:10:34;16.90;99.90
50162;DHT22;36061;48.116;11.612;2022-12-31T12:15:48;17.10;99.90
50162;DHT22;36061;48.116;11.612;2022-12-31T12:18:27;17.10;99.90
50162;DHT22;36061;48.116;11.612;2022-12-31T12:21:13;17.10;99.90
50162;DHT22;36061;48.116;11.612;2022-12-31T12:23:52;17.20;99.90
50162;DHT22;36061;48.116;11.612;2022-12-31T12:29:20;17.30;99.90
50162;DHT22;36061;48.116;11.612;2022-12-31T12:34:27;17.50;99.90
50162;DHT22;36061;48.116;11.612;2022-12-31T12:36:53;17.50;99.90
50162;DHT22;36061;48.116;11.612;2022-12-31T12:39:25;17.50;99.90
50162;DHT22;36061;48.116;11.612;2022-12-31T12:42:11;17.50;99.90
50162;DHT22;36061;48.116;11.612;2022-12-31T12:44:38;17.50;99.90
50162;DHT22;36061;48.116;11.612;2022-12-31T12:47:07;17.50;99.90
50162;DHT22;36061;48.116;11.612;2022-12-31T12:49:46;17.40;99.90
50162;DHT22;36061;48.116;11.612;2022-12-31T13:01:46;17.40;99.90
50162;DHT22;36061;48.116;11.612;2022-12-31T13:15:29;17.30;99.90
50162;DHT22;36061;48.116;11.612;2022-12-31T13:18:03;17.30;99.90
50162;DHT22;36061;48.116;11.612;2022-12-31T13:20:46;17.20;99.90
50162;DHT22;36061;48.116;11.612;2022-12-31T13:23:19;17.20;99.90
50162;DHT22;36061;48.116;11.612;2022-12-31T13:28:42;17.20;99.90
50162;DHT22;36061;48.116;11.612;2022-12-31T13:31:12;17.10;99.90
50162;DHT22;36061;48.116;11.612;2022-12-31T13:33:53;17.10;99.90
50162;DHT22;36061;48.116;11.612;2022-12-31T13:36:23;17.00;99.90
50162;DHT22;36061;48.116;11.612;2022-12-31T13:38:59;16.90;99.90
50162;DHT22;36061;48.116;11.612;2022-12-31T13:41:33;16.90;99.90
50162;DHT22;36061;48.116;11.612;2022-12-31T13:46:50;16.80;99.90
50162;DHT22;36061;48.116;11.612;2022-12-31T13:49:31;16.70;99.90
50162;DHT22;36061;48.116;11.612;2022-12-31T14:00:22;16.30;99.90
50162;DHT22;36061;48.116;11.612;2022-12-31T14:05:42;16.20;99.90
50162;DHT22;36061;48.116;11.612;2022-12-31T14:08:11;16.10;99.90
50162;DHT22;36061;48.116;11.612;2022-12-31T14:24:38;15.60;99.90
50162;DHT22;36061;48.116;11.612;2022-12-31T14:27:13;15.50;99.90
50162;DHT22;36061;48.116;11.612;2022-12-31T14:29:52;15.50;99.90
50162;DHT22;36061;48.116;11.612;2022-12-31T14:47:01;15.00;99.90
50162;DHT22;36061;48.116;11.612;2022-12-31T14:52:05;14.80;99.90
50162;DHT22;36061;48.116;11.612;2022-12-31T14:54:36;14.70;99.90
50162;DHT22;36061;48.116;11.612;2022-12-31T14:57:23;14.60;99.90
50162;DHT22;36061;48.116;11.612;2022-12-31T14:59:57;14.50;99.90
50162;DHT22;36061;48.116;11.612;2022-12-31T15:02:33;14.40;99.90
50162;DHT22;36061;48.116;11.612;2022-12-31T15:10:22;14.60;99.90
50162;DHT22;36061;48.116;11.612;2022-12-31T15:13:01;14.50;99.90
50162;DHT22;36061;48.116;11.612;2022-12-31T15:15:47;14.50;99.90
50162;DHT22;36061;48.116;11.612;2022-12-31T15:23:53;14.20;99.90
50162;DHT22;36061;48.116;11.612;2022-12-31T15:26:24;14.10;99.90
50162;DHT22;36061;48.116;11.612;2022-12-31T15:31:56;13.90;99.90
50162;DHT22;36061;48.116;11.612;2022-12-31T15:34:34;13.80;99.90
50162;DHT22;36061;48.116;11.612;2022-12-31T15:37:03;13.70;99.90
50162;DHT22;36061;48.116;11.612;2022-12-31T15:41:55;13.60;99.90
50162;DHT22;36061;48.116;11.612;2022-12-31T15:47:32;13.50;99.90
50162;DHT22;36061;48.116;11.612;2022-12-31T15:50:03;13.40;99.90
50162;DHT22;36061;48.116;11.612;2022-12-31T15:52:43;13.40;99.90
50162;DHT22;36061;48.116;11.612;2022-12-31T15:55:26;13.40;99.90
50162;DHT22;36061;48.116;11.612;2022-12-31T15:57:55;13.30;99.90
50162;DHT22;36061;48.116;11.612;2022-12-31T16:00:23;13.30;99.90
50162;DHT22;36061;48.116;11.612;2022-12-31T16:02:51;13.20;99.90
50162;DHT22;36061;48.116;11.612;2022-12-31T16:05:21;13.20;99.90
50162;DHT22;36061;48.116;11.612;2022-12-31T16:07:51;13.10;99.90
50162;DHT22;36061;48.116;11.612;2022-12-31T16:10:25;13.00;99.90
50162;DHT22;36061;48.116;11.612;2022-12-31T16:12:54;13.00;99.90
50162;DHT22;36061;48.116;11.612;2022-12-31T16:15:27;13.00;99.90
50162;DHT22;36061;48.116;11.612;2022-12-31T16:18:07;13.00;99.90
50162;DHT22;36061;48.116;11.612;2022-12-31T16:20:41;13.00;99.90
50162;DHT22;36061;48.116;11.612;2022-12-31T16:23:24;13.00;99.90
50162;DHT22;36061;48.116;11.612;2022-12-31T16:25:53;12.90;99.90
50162;DHT22;36061;48.116;11.612;2022-12-31T16:28:31;12.90;99.90
50162;DHT22;36061;48.116;11.612;2022-12-31T16:31:05;12.80;99.90
50162;DHT22;36061;48.116;11.612;2022-12-31T16:33:32;12.80;99.90
50162;DHT22;36061;48.116;11.612;2022-12-31T16:36:00;12.70;99.90
50162;DHT22;36061;48.116;11.612;2022-12-31T16:38:36;12.60;99.90
50162;DHT22;36061;48.116;11.612;2022-12-31T16:41:20;12.60;99.90
50162;DHT22;36061;48.116;11.612;2022-12-31T16:43:49;12.50;99.90
50162;DHT22;36061;48.116;11.612;2022-12-31T16:48:48;12.50;99.90
50162;DHT22;36061;48.116;11.612;2022-12-31T16:51:17;12.40;99.90
50162;DHT22;36061;48.116;11.612;2022-12-31T16:53:45;12.40;99.90
50162;DHT22;36061;48.116;11.612;2022-12-31T16:56:21;12.40;99.90
50162;DHT22;36061;48.116;11.612;2022-12-31T16:58:49;12.30;99.90
50162;DHT22;36061;48.116;11.612;2022-12-31T17:01:24;12.20;99.90
50162;DHT22;36061;48.116;11.612;2022-12-31T17:04:15;12.20;99.90
50162;DHT22;36061;48.116;11.612;2022-12-31T17:06:41;12.10;99.90
50162;DHT22;36061;48.116;11.612;2022-12-31T17:09:13;12.10;99.90
50162;DHT22;36061;48.116;11.612;2022-12-31T17:11:56;12.10;99.90
50162;DHT22;36061;48.116;11.612;2022-12-31T17:14:24;12.10;99.90
50162;DHT22;36061;48.116;11.612;2022-12-31T17:17:03;12.00;99.90
50162;DHT22;36061;48.116;11.612;2022-12-31T17:19:36;12.00;99.90
50162;DHT22;36061;48.116;11.612;2022-12-31T17:22:04;12.00;99.90
50162;DHT22;36061;48.116;11.612;2022-12-31T17:24:32;12.00;99.90
50162;DHT22;36061;48.116;11.612;2022-12-31T17:27:05;12.00;99.90
50162;DHT22;36061;48.116;11.612;2022-12-31T17:29:32;11.90;99.90
50162;DHT22;36061;48.116;11.612;2022-12-31T17:32:04;11.90;99.90
50162;DHT22;36061;48.116;11.612;2022-12-31T17:34:33;11.90;99.90
50162;DHT22;36061;48.116;11.612;2022-12-31T17:37:09;11.90;99.90
50162;DHT22;36061;48.116;11.612;2022-12-31T17:39:50;11.80;99.90
50162;DHT22;36061;48.116;11.612;2022-12-31T17:42:32;11.80;99.90
50162;DHT22;36061;48.116;11.612;2022-12-31T17:45:05;11.80;99.90
50162;DHT22;36061;48.116;11.612;2022-12-31T17:47:34;11.80;99.90
50162;DHT22;36061;48.116;11.612;2022-12-31T17:50:07;11.70;99.90
50162;DHT22;36061;48.116;11.612;2022-12-31T17:52:33;11.70;99.90
50162;DHT22;36061;48.116;11.612;2022-12-31T17:54:59;11.70;99.90
50162;DHT22;36061;48.116;11.612;2022-12-31T17:57:26;11.70;99.90
50162;DHT22;36061;48.116;11.612;2022-12-31T17:59:53;11.60;99.90
50162;DHT22;36061;48.116;11.612;2022-12-31T18:02:19;11.60;99.90
50162;DHT22;36061;48.116;11.612;2022-12-31T18:04:45;11.60;99.90
50162;DHT22;36061;48.116;11.612;2022-12-31T18:07:10;11.60;99.90
50162;DHT22;36061;48.116;11.612;2022-12-31T18:09:36;11.60;99.90
50162;DHT22;36061;48.116;11.612;2022-12-31T18:12:03;11.60;99.90
50162;DHT22;36061;48.116;11.612;2022-12-31T18:14:30;11.60;99.90
50162;DHT22;36061;48.116;11.612;2022-12-31T18:16:56;11.60;99.90
50162;DHT22;36061;48.116;11.612;2022-12-31T18:19:22;11.60;99.90
50162;DHT22;36061;48.116;11.612;2022-12-31T18:21:47;11.50;99.90
50162;DHT22;36061;48.116;11.612;2022-12-31T18:24:14;11.50;99.90
50162;DHT22;36061;48.116;11.612;2022-12-31T18:26:41;11.50;99.90
50162;DHT22;36061;48.116;11.612;2022-12-31T18:29:16;11.40;99.90
50162;DHT22;36061;48.116;11.612;2022-12-31T18:31:44;11.40;99.90
50162;DHT22;36061;48.116;11.612;2022-12-31T18:34:13;11.40;99.90
50162;DHT22;36061;48.116;11.612;2022-12-31T18:36:39;11.40;99.90
50162;DHT22;36061;48.116;11.612;2022-12-31T18:39:05;11.30;99.90
50162;DHT22;36061;48.116;11.612;2022-12-31T18:41:40;11.30;99.90
50162;DHT22;36061;48.116;11.612;2022-12-31T18:44:10;11.30;99.90
50162;DHT22;36061;48.116;11.612;2022-12-31T18:46:36;11.30;99.90
50162;DHT22;36061;48.116;11.612;2022-12-31T18:49:01;11.30;99.90
50162;DHT22;36061;48.116;11.612;2022-12-31T18:51:27;11.30;99.90
50162;DHT22;36061;48.116;11.612;2022-12-31T18:53:53;11.20;99.90
50162;DHT22;36061;48.116;11.612;2022-12-31T18:56:20;11.20;99.90
50162;DHT22;36061;48.116;11.612;2022-12-31T18:58:47;11.20;99.90
50162;DHT22;36061;48.116;11.612;2022-12-31T19:01:36;11.20;99.90
50162;DHT22;36061;48.116;11.612;2022-12-31T19:04:14;11.10;99.90
50162;DHT22;36061;48.116;11.612;2022-12-31T19:06:40;11.10;99.90
50162;DHT22;36061;48.116;11.612;2022-12-31T19:09:07;11.00;99.90
50162;DHT22;36061;48.116;11.612;2022-12-31T19:11:33;11.00;99.90
50162;DHT22;36061;48.116;11.612;2022-12-31T19:14:01;11.00;99.90
50162;DHT22;36061;48.116;11.612;2022-12-31T19:16:27;11.00;99.90
50162;DHT22;36061;48.116;11.612;2022-12-31T19:18:52;10.90;99.90
50162;DHT22;36061;48.116;11.612;2022-12-31T19:21:22;10.90;99.90
50162;DHT22;36061;48.116;11.612;2022-12-31T19:23:49;10.90;99.90
50162;DHT22;36061;48.116;11.612;2022-12-31T19:26:17;10.90;99.90
50162;DHT22;36061;48.116;11.612;2022-12-31T19:28:44;10.90;99.90
50162;DHT22;36061;48.116;11.612;2022-12-31T19:31:09;10.80;99.90
50162;DHT22;36061;48.116;11.612;2022-12-31T19:33:35;10.80;99.90
50162;DHT22;36061;48.116;11.612;2022-12-31T19:36:02;10.80;99.90
50162;DHT22;36061;48.116;11.612;2022-12-31T19:38:28;10.80;99.90
50162;DHT22;36061;48.116;11.612;2022-12-31T19:40:54;10.80;99.90
50162;DHT22;36061;48.116;11.612;2022-12-31T19:43:21;10.90;99.90
50162;DHT22;36061;48.116;11.612;2022-12-31T19:45:48;10.90;99.90
50162;DHT22;36061;48.116;11.612;2022-12-31T19:48:17;11.00;99.90
50162;DHT22;36061;48.116;11.612;2022-12-31T19:50:46;11.10;99.90
50162;DHT22;36061;48.116;11.612;2022-12-31T19:53:14;11.00;99.90
50162;DHT22;36061;48.116;11.612;2022-12-31T19:55:40;11.10;99.90
50162;DHT22;36061;48.116;11.612;2022-12-31T19:58:06;11.00;99.90
50162;DHT22;36061;48.116;11.612;2022-12-31T20:00:33;11.00;99.90
50162;DHT22;36061;48.116;11.612;2022-12-31T20:02:58;11.00;99.90
50162;DHT22;36061;48.116;11.612;2022-12-31T20:05:24;11.00;99.90
50162;DHT22;36061;48.116;11.612;2022-12-31T20:07:50;10.90;99.90
50162;DHT22;36061;48.116;11.612;2022-12-31T20:10:16;10.90;99.90
50162;DHT22;36061;48.116;11.612;2022-12-31T20:12:41;10.80;99.90
50162;DHT22;36061;48.116;11.612;2022-12-31T20:15:08;10.80;99.90
50162;DHT22;36061;48.116;11.612;2022-12-31T20:17:33;10.80;99.90
50162;DHT22;36061;48.116;11.612;2022-12-31T20:19:59;10.70;99.90
50162;DHT22;36061;48.116;11.612;2022-12-31T20:22:26;10.70;99.90
50162;DHT22;36061;48.116;11.612;2022-12-31T20:24:51;10.60;99.90